createdAt,value
2019-03-12T00:00:09.405Z,4.92
2019-03-12T00:03:16.167Z,4.88
2019-03-12T00:06:21.255Z,4.77
2019-03-12T00:09:26.450Z,4.63
2019-03-12T00:12:31.630Z,4.75
2019-03-12T00:15:36.848Z,4.81
2019-03-12T00:18:42.037Z,4.79
2019-03-12T00:21:47.191Z,4.68
2019-03-12T00:24:52.562Z,4.87
2019-03-12T00:27:57.742Z,4.83
2019-03-12T00:31:02.880Z,4.74
2019-03-12T00:34:08.009Z,4.72
2019-03-12T00:37:13.196Z,4.82
2019-03-12T00:40:18.356Z,4.75
2019-03-12T00:43:23.539Z,4.72
2019-03-12T00:46:28.643Z,4.84
2019-03-12T00:49:33.756Z,4.85
2019-03-12T00:52:38.875Z,4.76
2019-03-12T00:55:44.046Z,4.53
2019-03-12T00:58:49.216Z,4.68
2019-03-12T01:01:54.305Z,4.67
2019-03-12T01:04:59.408Z,4.59
2019-03-12T01:08:04.563Z,4.74
2019-03-12T01:11:09.703Z,4.77
2019-03-12T01:14:14.852Z,4.69
2019-03-12T01:17:20.074Z,4.79
2019-03-12T01:20:25.214Z,4.95
2019-03-12T01:23:30.358Z,4.80
2019-03-12T01:26:35.443Z,4.71
2019-03-12T01:29:40.634Z,4.87
2019-03-12T01:32:45.844Z,4.75
2019-03-12T01:35:52.020Z,4.72
2019-03-12T01:38:57.127Z,4.60
2019-03-12T01:42:02.236Z,4.67
2019-03-12T01:45:09.005Z,4.73
2019-03-12T01:48:14.144Z,4.66
2019-03-12T01:51:19.281Z,4.76
2019-03-12T01:54:24.401Z,4.78
2019-03-12T01:57:29.527Z,4.70
2019-03-12T02:00:34.715Z,4.62
2019-03-12T02:03:39.775Z,4.70
2019-03-12T02:06:44.928Z,4.76
2019-03-12T02:09:50.011Z,4.86
2019-03-12T02:12:55.110Z,4.88
2019-03-12T02:16:00.335Z,4.89
2019-03-12T02:19:05.496Z,4.77
2019-03-12T02:22:10.600Z,4.72
2019-03-12T02:25:16.905Z,4.52
2019-03-12T02:28:21.989Z,4.54
2019-03-12T02:31:27.187Z,4.49
2019-03-12T02:34:33.314Z,4.49
2019-03-12T02:37:38.485Z,4.63
2019-03-12T02:40:43.618Z,4.48
2019-03-12T02:43:48.821Z,4.39
2019-03-12T02:46:53.981Z,4.34
2019-03-12T02:49:59.147Z,4.26
2019-03-12T02:53:04.279Z,4.34
2019-03-12T02:56:09.418Z,4.35
2019-03-12T02:59:14.618Z,4.35
2019-03-12T03:02:19.755Z,4.32
2019-03-12T03:05:24.977Z,4.29
2019-03-12T03:08:32.389Z,4.16
2019-03-12T03:11:37.513Z,4.15
2019-03-12T03:14:42.678Z,4.26
2019-03-12T03:17:47.785Z,4.19
2019-03-12T03:20:52.925Z,4.14
2019-03-12T03:23:58.122Z,4.02
2019-03-12T03:27:03.313Z,3.97
2019-03-12T03:30:12.239Z,4.04
2019-03-12T03:33:17.378Z,3.95
2019-03-12T03:36:22.593Z,3.95
2019-03-12T03:39:27.801Z,3.89
2019-03-12T03:42:32.984Z,3.96
2019-03-12T03:45:38.129Z,3.93
2019-03-12T03:48:43.287Z,3.92
2019-03-12T03:51:48.449Z,3.90
2019-03-12T03:54:53.610Z,3.96
2019-03-12T03:57:58.755Z,3.89
2019-03-12T04:01:04.443Z,3.83
2019-03-12T04:04:09.582Z,3.85
2019-03-12T04:07:14.747Z,3.77
2019-03-12T04:10:19.888Z,3.77
2019-03-12T04:13:25.023Z,3.71
2019-03-12T04:16:30.133Z,3.68
2019-03-12T04:19:35.261Z,3.62
2019-03-12T04:22:40.381Z,3.79
2019-03-12T04:25:45.491Z,3.55
2019-03-12T04:28:50.612Z,3.37
2019-03-12T04:31:55.753Z,3.44
2019-03-12T04:35:00.952Z,3.21
2019-03-12T04:38:07.401Z,3.02
2019-03-12T04:41:12.582Z,2.87
2019-03-12T04:44:17.711Z,2.77
2019-03-12T04:47:22.796Z,2.57
2019-03-12T04:50:27.979Z,2.40
2019-03-12T04:53:33.073Z,2.52
2019-03-12T04:56:38.163Z,2.33
2019-03-12T04:59:43.361Z,2.14
2019-03-12T05:02:48.680Z,1.97
2019-03-12T05:05:53.802Z,1.70
2019-03-12T05:08:58.922Z,1.49
2019-03-12T05:12:04.094Z,1.31
2019-03-12T05:15:11.242Z,1.23
2019-03-12T05:18:16.552Z,1.18
2019-03-12T05:21:21.642Z,1.02
2019-03-12T05:24:26.762Z,0.97
2019-03-12T05:27:31.978Z,0.85
2019-03-12T05:30:37.084Z,0.69
2019-03-12T05:33:42.254Z,0.72
2019-03-12T05:36:47.389Z,0.70
2019-03-12T05:39:52.481Z,0.63
2019-03-12T05:42:57.667Z,0.54
2019-03-12T05:46:02.904Z,0.55
2019-03-12T05:49:08.012Z,0.64
2019-03-12T05:52:13.133Z,0.64
2019-03-12T05:55:18.286Z,0.61
2019-03-12T05:58:23.389Z,0.56
2019-03-12T06:01:28.670Z,0.66
2019-03-12T06:04:33.789Z,0.61
2019-03-12T06:07:38.948Z,0.63
2019-03-12T06:10:45.218Z,0.86
2019-03-12T06:13:50.338Z,1.08
2019-03-12T06:16:55.437Z,1.29
2019-03-12T06:20:00.661Z,1.50
2019-03-12T06:23:06.123Z,1.54
2019-03-12T06:26:11.260Z,1.61
2019-03-12T06:29:16.554Z,1.68
2019-03-12T06:32:29.165Z,1.95
2019-03-12T06:35:50.803Z,2.04
2019-03-12T06:39:12.774Z,2.21
2019-03-12T06:42:32.348Z,2.39
2019-03-12T06:45:56.469Z,2.44
2019-03-12T06:49:12.289Z,2.75
2019-03-12T06:52:40.545Z,3.01
2019-03-12T06:56:08.492Z,3.32
2019-03-12T06:59:35.588Z,3.73
2019-03-12T07:02:48.335Z,3.68
2019-03-12T07:06:27.582Z,4.29
2019-03-12T07:09:44.978Z,4.64
2019-03-12T07:13:16.375Z,4.65
2019-03-12T07:16:39.117Z,4.64
2019-03-12T07:20:01.823Z,5.07
2019-03-12T07:23:22.513Z,5.06
2019-03-12T07:26:45.637Z,5.17
2019-03-12T07:30:16.685Z,4.88
2019-03-12T07:33:40.745Z,5.19
2019-03-12T07:36:54.793Z,5.18
2019-03-12T07:40:28.062Z,5.28
2019-03-12T07:43:43.675Z,5.06
2019-03-12T07:47:16.903Z,5.28
2019-03-12T07:50:28.941Z,5.54
2019-03-12T07:54:05.182Z,5.53
2019-03-12T07:57:23.071Z,5.63
2019-03-12T08:00:38.061Z,5.66
2019-03-12T08:04:02.949Z,5.94
2019-03-12T08:07:20.656Z,6.29
2019-03-12T08:10:43.697Z,6.27
2019-03-12T08:14:06.498Z,6.43
2019-03-12T08:17:30.625Z,6.28
2019-03-12T08:20:47.662Z,6.58
2019-03-12T08:24:01.662Z,6.76
2019-03-12T08:27:26.046Z,6.75
2019-03-12T08:30:48.998Z,7.04
2019-03-12T08:34:19.193Z,6.58
2019-03-12T08:37:43.477Z,7.10
2019-03-12T08:41:16.458Z,7.26
2019-03-12T08:44:43.733Z,7.35
2019-03-12T08:48:04.380Z,7.70
2019-03-12T08:51:26.562Z,7.89
2019-03-12T08:54:53.767Z,7.99
2019-03-12T08:58:13.951Z,7.85
2019-03-12T09:01:36.085Z,7.47
2019-03-12T09:05:05.948Z,7.86
2019-03-12T09:08:19.362Z,8.23
2019-03-12T09:11:55.645Z,8.45
2019-03-12T09:15:36.767Z,8.35
2019-03-12T09:19:04.254Z,8.49
2019-03-12T09:22:28.356Z,7.81
2019-03-12T09:25:45.724Z,7.78
2019-03-12T09:29:05.966Z,7.82
2019-03-12T09:32:40.249Z,7.87
2019-03-12T09:36:13.506Z,8.14
2019-03-12T09:39:24.921Z,8.18
2019-03-12T09:42:48.991Z,7.90
2019-03-12T09:46:22.122Z,7.76
2019-03-12T09:49:45.134Z,7.72
2019-03-12T09:52:59.908Z,8.09
2019-03-12T09:56:14.233Z,8.02
2019-03-12T09:59:41.811Z,7.97
2019-03-12T10:03:05.914Z,8.01
2019-03-12T10:06:22.405Z,8.15
2019-03-12T10:09:45.242Z,8.56
2019-03-12T10:13:01.207Z,8.56
2019-03-12T10:16:31.327Z,8.39
2019-03-12T10:19:50.350Z,8.53
2019-03-12T10:23:27.460Z,8.79
2019-03-12T10:26:46.805Z,9.07
2019-03-12T10:30:20.120Z,9.25
2019-03-12T10:33:36.207Z,9.78
2019-03-12T10:37:11.205Z,9.34
2019-03-12T10:40:27.586Z,9.48
2019-03-12T10:43:44.701Z,9.92
2019-03-12T10:46:56.865Z,9.89
2019-03-12T10:50:02.119Z,9.77
2019-03-12T10:53:07.611Z,9.69
2019-03-12T10:56:12.786Z,10.10
2019-03-12T10:59:17.992Z,10.59
2019-03-12T11:02:23.175Z,10.25
2019-03-12T11:05:28.350Z,10.29
2019-03-12T11:08:33.464Z,10.53
2019-03-12T11:11:38.663Z,10.78
2019-03-12T11:14:44.864Z,10.59
2019-03-12T11:17:50.509Z,10.97
2019-03-12T11:20:58.566Z,11.36
2019-03-12T11:24:02.743Z,11.39
2019-03-12T11:27:07.884Z,10.98
2019-03-12T11:30:15.172Z,11.75
2019-03-12T11:33:20.498Z,10.94
2019-03-12T11:36:25.639Z,11.02
2019-03-12T11:39:30.828Z,11.09
2019-03-12T11:42:36.000Z,10.75
2019-03-12T11:45:41.320Z,11.04
2019-03-12T11:48:46.506Z,10.99
2019-03-12T11:51:51.620Z,10.90
2019-03-12T11:54:56.724Z,10.92
2019-03-12T11:58:02.001Z,11.16
2019-03-12T12:01:08.262Z,10.86
2019-03-12T12:04:13.517Z,10.34
2019-03-12T12:07:18.596Z,10.66
2019-03-12T12:10:24.143Z,10.92
2019-03-12T12:13:29.228Z,10.71
2019-03-12T12:16:34.339Z,10.90
2019-03-12T12:19:39.584Z,10.89
2019-03-12T12:22:44.737Z,11.39
2019-03-12T12:25:49.872Z,10.96
2019-03-12T12:28:55.042Z,11.92
2019-03-12T12:32:00.264Z,12.11
2019-03-12T12:35:06.227Z,11.79
2019-03-12T12:38:12.413Z,11.42
2019-03-12T12:41:17.503Z,11.47
2019-03-12T12:44:22.772Z,11.79
2019-03-12T12:47:27.891Z,11.80
2019-03-12T12:50:33.072Z,11.36
2019-03-12T12:53:38.336Z,11.93
2019-03-12T12:56:43.494Z,11.71
2019-03-12T12:59:48.643Z,11.69
2019-03-12T13:02:53.844Z,11.75
2019-03-12T13:05:59.080Z,11.43
2019-03-12T13:09:05.650Z,11.34
2019-03-12T13:12:12.374Z,11.20
2019-03-12T13:15:17.504Z,11.21
2019-03-12T13:18:22.625Z,10.87
2019-03-12T13:21:27.879Z,10.99
2019-03-12T13:24:33.145Z,10.92
2019-03-12T13:27:42.579Z,10.85
2019-03-12T13:30:45.091Z,10.87
2019-03-12T13:33:50.478Z,10.90
2019-03-12T13:36:55.562Z,11.25
2019-03-12T13:40:01.325Z,11.10
2019-03-12T13:43:07.209Z,10.53
2019-03-12T13:46:12.425Z,10.98
2019-03-12T13:49:17.641Z,11.25
2019-03-12T13:52:22.832Z,11.11
2019-03-12T13:55:27.946Z,10.98
2019-03-12T13:58:33.117Z,11.09
2019-03-12T14:01:38.251Z,11.10
2019-03-12T14:04:44.634Z,10.63
2019-03-12T14:07:49.760Z,10.91
2019-03-12T14:10:54.989Z,11.39
2019-03-12T14:14:00.158Z,11.13
2019-03-12T14:17:08.283Z,11.16
2019-03-12T14:20:44.190Z,11.35
2019-03-12T14:23:58.710Z,11.03
2019-03-12T14:27:03.946Z,11.09
2019-03-12T14:30:09.271Z,11.10
2019-03-12T14:33:14.514Z,11.38
2019-03-12T14:36:19.677Z,11.24
2019-03-12T14:39:24.821Z,11.42
2019-03-12T14:42:30.016Z,11.09
2019-03-12T14:45:38.052Z,10.58
2019-03-12T14:48:47.670Z,10.52
2019-03-12T14:52:29.545Z,10.66
2019-03-12T14:55:34.695Z,10.66
2019-03-12T14:58:39.865Z,10.33
2019-03-12T15:01:44.926Z,10.75
2019-03-12T15:04:50.157Z,10.85
2019-03-12T15:07:55.400Z,10.57
2019-03-12T15:11:00.522Z,10.60
2019-03-12T15:14:05.631Z,10.72
2019-03-12T15:17:10.831Z,10.58
2019-03-12T15:20:16.031Z,10.70
2019-03-12T15:23:21.219Z,10.58
2019-03-12T15:26:26.317Z,10.43
2019-03-12T15:29:31.437Z,10.59
2019-03-12T15:32:36.688Z,10.34
2019-03-12T15:35:41.852Z,10.37
2019-03-12T15:38:47.894Z,10.49
2019-03-12T15:41:53.060Z,10.66
2019-03-12T15:44:58.315Z,10.31
2019-03-12T15:48:03.479Z,10.29
2019-03-12T15:51:08.688Z,10.36
2019-03-12T15:54:13.964Z,10.03
2019-03-12T15:57:19.079Z,9.76
2019-03-12T16:00:24.172Z,9.84
2019-03-12T16:03:29.355Z,9.93
2019-03-12T16:06:34.574Z,9.84
2019-03-12T16:09:39.719Z,9.63
2019-03-12T16:12:46.500Z,9.61
2019-03-12T16:15:51.673Z,9.43
2019-03-12T16:18:56.808Z,9.29
2019-03-12T16:22:02.013Z,9.26
2019-03-12T16:25:07.898Z,9.21
2019-03-12T16:28:13.057Z,9.18
2019-03-12T16:31:18.228Z,9.04
2019-03-12T16:34:23.464Z,8.85
2019-03-12T16:37:29.095Z,8.82
2019-03-12T16:40:34.220Z,8.89
2019-03-12T16:43:39.382Z,8.68
2019-03-12T16:46:44.550Z,8.48
2019-03-12T16:49:49.659Z,8.27
2019-03-12T16:52:54.903Z,8.17
2019-03-12T16:56:00.075Z,8.00
2019-03-12T16:59:08.287Z,7.88
2019-03-12T17:02:11.966Z,7.69
2019-03-12T17:05:17.125Z,7.33
2019-03-12T17:08:22.305Z,7.46
2019-03-12T17:11:27.457Z,7.09
2019-03-12T17:14:38.805Z,6.93
2019-03-12T17:17:39.524Z,6.84
2019-03-12T17:20:44.724Z,6.74
2019-03-12T17:23:49.975Z,6.70
2019-03-12T17:26:55.060Z,6.63
2019-03-12T17:30:00.440Z,6.40
2019-03-12T17:33:06.863Z,6.26
2019-03-12T17:36:12.190Z,6.11
2019-03-12T17:39:17.305Z,6.12
2019-03-12T17:42:22.725Z,5.99
2019-03-12T17:45:27.880Z,5.99
2019-03-12T17:48:33.051Z,6.05
2019-03-12T17:51:38.135Z,6.11
2019-03-12T17:54:43.283Z,6.05
2019-03-12T17:57:50.738Z,5.93
2019-03-12T18:00:55.222Z,5.80
2019-03-12T18:04:00.357Z,5.68
2019-03-12T18:07:05.646Z,5.66
2019-03-12T18:10:11.823Z,5.60
2019-03-12T18:13:16.999Z,5.71
2019-03-12T18:16:22.111Z,5.46
2019-03-12T18:19:27.337Z,5.45
2019-03-12T18:22:32.541Z,5.51
2019-03-12T18:25:37.921Z,5.60
2019-03-12T18:28:44.461Z,5.71
2019-03-12T18:31:49.689Z,5.84
2019-03-12T18:34:54.972Z,6.01
2019-03-12T18:38:00.278Z,6.17
2019-03-12T18:41:05.763Z,6.11
2019-03-12T18:44:10.888Z,6.20
2019-03-12T18:47:19.046Z,6.13
2019-03-12T18:50:23.301Z,6.02
2019-03-12T18:53:28.540Z,6.10
2019-03-12T18:56:33.807Z,6.06
2019-03-12T18:59:38.883Z,6.11
2019-03-12T19:02:44.024Z,6.38
2019-03-12T19:05:49.246Z,6.57
2019-03-12T19:08:54.411Z,6.57
2019-03-12T19:11:59.502Z,6.58
2019-03-12T19:15:05.402Z,6.37
2019-03-12T19:18:10.677Z,6.58
2019-03-12T19:21:15.783Z,6.59
2019-03-12T19:24:20.956Z,6.67
2019-03-12T19:27:27.152Z,6.73
2019-03-12T19:30:32.556Z,6.83
2019-03-12T19:33:42.520Z,6.71
2019-03-12T19:36:47.661Z,6.62
2019-03-12T19:39:53.011Z,6.59
2019-03-12T19:42:58.133Z,6.62
2019-03-12T19:46:03.293Z,6.65
2019-03-12T19:49:08.497Z,6.62
2019-03-12T19:52:13.689Z,6.60
2019-03-12T19:55:22.285Z,6.58
2019-03-12T19:58:28.647Z,6.65
2019-03-12T20:01:34.551Z,6.73
2019-03-12T20:04:47.320Z,6.68
2019-03-12T20:07:46.562Z,6.62
2019-03-12T20:11:40.784Z,6.74
2019-03-12T20:15:17.377Z,7.07
2019-03-12T20:19:05.408Z,7.24
2019-03-12T20:22:59.433Z,7.15
2019-03-12T20:27:13.221Z,7.18
2019-03-12T20:30:55.400Z,7.13
2019-03-12T20:34:49.014Z,7.13
2019-03-12T20:38:30.906Z,7.20
2019-03-12T20:42:12.036Z,7.40
2019-03-12T20:46:09.154Z,7.67
2019-03-12T20:49:50.475Z,7.61
2019-03-12T20:53:41.626Z,7.53
2019-03-12T20:57:29.581Z,7.70
2019-03-12T21:01:27.861Z,7.60
2019-03-12T21:05:09.195Z,7.56
2019-03-12T21:09:10.648Z,7.74
2019-03-12T21:13:21.568Z,7.62
2019-03-12T21:17:09.764Z,7.48
2019-03-12T21:21:20.228Z,7.30
2019-03-12T21:25:00.440Z,7.20
2019-03-12T21:28:30.618Z,7.08
2019-03-12T21:31:35.751Z,7.01
2019-03-12T21:34:41.206Z,7.00
2019-03-12T21:37:46.379Z,6.97
2019-03-12T21:40:51.618Z,7.00
2019-03-12T21:43:57.842Z,6.92
2019-03-12T21:47:03.052Z,6.92
2019-03-12T21:50:08.412Z,6.90
2019-03-12T21:53:13.683Z,6.87
2019-03-12T21:56:18.897Z,6.91
2019-03-12T21:59:24.346Z,6.93
2019-03-12T22:02:29.456Z,6.95
2019-03-12T22:05:34.539Z,6.94
2019-03-12T22:08:39.700Z,6.98
2019-03-12T22:11:44.976Z,7.01
2019-03-12T22:14:50.206Z,6.99
2019-03-12T22:17:55.324Z,6.96
2019-03-12T22:21:00.462Z,7.03
2019-03-12T22:24:07.629Z,7.04
2019-03-12T22:27:12.863Z,7.14
2019-03-12T22:30:21.070Z,7.45
2019-03-12T22:33:26.334Z,7.59
2019-03-12T22:36:31.482Z,7.86
2019-03-12T22:39:36.638Z,7.85
2019-03-12T22:42:41.904Z,7.81
2019-03-12T22:45:47.042Z,7.97
2019-03-12T22:48:52.250Z,8.14
2019-03-12T22:51:57.342Z,8.06
2019-03-12T22:55:04.106Z,7.82
2019-03-12T22:58:09.490Z,7.73
2019-03-12T23:01:32.444Z,7.58
2019-03-12T23:04:55.504Z,7.48
2019-03-12T23:08:18.393Z,7.13
2019-03-12T23:11:25.195Z,6.86
2019-03-12T23:14:31.962Z,6.73
2019-03-12T23:17:37.274Z,6.82
2019-03-12T23:20:42.530Z,6.64
2019-03-12T23:23:47.658Z,6.51
2019-03-12T23:26:52.846Z,6.48
2019-03-12T23:29:58.046Z,6.50
2019-03-12T23:33:04.381Z,6.38
2019-03-12T23:36:09.647Z,6.59
2019-03-12T23:39:14.957Z,6.39
2019-03-12T23:42:22.501Z,6.35
2019-03-12T23:45:27.719Z,6.55
2019-03-12T23:48:32.856Z,6.63
2019-03-12T23:51:39.094Z,6.48
2019-03-12T23:54:44.388Z,6.52
2019-03-12T23:57:49.531Z,6.59
